sensor_id;sensor_type;location;lat;lon;timestamp;P1;durP1;ratioP1;P2;durP2;ratioP2
6985;SDS011;3533;51.246;6.850;2023-02-27T00:01:05;1.93;;;1.37;;
6985;SDS011;3533;51.246;6.850;2023-02-27T00:03:31;1.30;;;1.20;;
6985;SDS011;3533;51.246;6.850;2023-02-27T00:05:57;1.33;;;1.23;;
6985;SDS011;3533;51.246;6.850;2023-02-27T00:08:22;1.40;;;1.30;;
6985;SDS011;3533;51.246;6.850;2023-02-27T00:10:48;2.30;;;1.40;;
6985;SDS011;3533;51.246;6.850;2023-02-27T00:13:14;1.50;;;1.40;;
6985;SDS011;3533;51.246;6.850;2023-02-27T00:15:40;1.30;;;1.20;;
6985;SDS011;3533;51.246;6.850;2023-02-27T00:18:06;1.50;;;1.40;;
6985;SDS011;3533;51.246;6.850;2023-02-27T00:20:32;1.20;;;1.10;;
6985;SDS011;3533;51.246;6.850;2023-02-27T00:23:02;1.23;;;1.13;;
6985;SDS011;3533;51.246;6.850;2023-02-27T00:25:29;1.50;;;1.40;;
6985;SDS011;3533;51.246;6.850;2023-02-27T00:27:56;1.53;;;1.37;;
6985;SDS011;3533;51.246;6.850;2023-02-27T00:30:21;1.47;;;1.37;;
6985;SDS011;3533;51.246;6.850;2023-02-27T00:32:47;1.50;;;1.40;;
6985;SDS011;3533;51.246;6.850;2023-02-27T00:35:12;1.57;;;1.40;;
6985;SDS011;3533;51.246;6.850;2023-02-27T00:37:38;1.40;;;1.30;;
6985;SDS011;3533;51.246;6.850;2023-02-27T00:40:04;1.50;;;1.40;;
6985;SDS011;3533;51.246;6.850;2023-02-27T00:42:30;1.43;;;1.10;;
6985;SDS011;3533;51.246;6.850;2023-02-27T00:44:57;1.83;;;1.40;;
6985;SDS011;3533;51.246;6.850;2023-02-27T00:47:22;1.73;;;1.63;;
6985;SDS011;3533;51.246;6.850;2023-02-27T00:49:48;1.47;;;1.37;;
6985;SDS011;3533;51.246;6.850;2023-02-27T00:52:13;1.43;;;1.27;;
6985;SDS011;3533;51.246;6.850;2023-02-27T00:54:39;1.33;;;1.23;;
6985;SDS011;3533;51.246;6.850;2023-02-27T00:57:04;1.60;;;1.00;;
6985;SDS011;3533;51.246;6.850;2023-02-27T00:59:30;1.47;;;1.37;;
6985;SDS011;3533;51.246;6.850;2023-02-27T01:01:56;1.30;;;1.20;;
6985;SDS011;3533;51.246;6.850;2023-02-27T01:04:21;1.60;;;1.50;;
6985;SDS011;3533;51.246;6.850;2023-02-27T01:06:47;1.83;;;1.73;;
6985;SDS011;3533;51.246;6.850;2023-02-27T01:09:12;1.27;;;1.17;;
6985;SDS011;3533;51.246;6.850;2023-02-27T01:11:38;1.37;;;1.27;;
6985;SDS011;3533;51.246;6.850;2023-02-27T01:14:03;1.80;;;1.37;;
6985;SDS011;3533;51.246;6.850;2023-02-27T01:16:29;1.60;;;1.50;;
6985;SDS011;3533;51.246;6.850;2023-02-27T01:18:55;1.50;;;1.40;;
6985;SDS011;3533;51.246;6.850;2023-02-27T01:21:20;1.40;;;1.30;;
6985;SDS011;3533;51.246;6.850;2023-02-27T01:23:46;1.30;;;1.20;;
6985;SDS011;3533;51.246;6.850;2023-02-27T01:26:12;1.50;;;1.40;;
6985;SDS011;3533;51.246;6.850;2023-02-27T01:28:37;1.20;;;1.10;;
6985;SDS011;3533;51.246;6.850;2023-02-27T01:31:03;1.40;;;1.30;;
6985;SDS011;3533;51.246;6.850;2023-02-27T01:33:29;1.43;;;1.33;;
6985;SDS011;3533;51.246;6.850;2023-02-27T01:35:54;1.40;;;1.30;;
6985;SDS011;3533;51.246;6.850;2023-02-27T01:38:20;2.43;;;1.17;;
6985;SDS011;3533;51.246;6.850;2023-02-27T01:40:45;1.17;;;1.07;;
6985;SDS011;3533;51.246;6.850;2023-02-27T01:43:18;1.50;;;1.40;;
6985;SDS011;3533;51.246;6.850;2023-02-27T01:45:46;1.23;;;1.13;;
6985;SDS011;3533;51.246;6.850;2023-02-27T01:48:17;1.20;;;1.10;;
6985;SDS011;3533;51.246;6.850;2023-02-27T01:50:58;1.37;;;1.27;;
6985;SDS011;3533;51.246;6.850;2023-02-27T01:53:33;1.43;;;1.20;;
6985;SDS011;3533;51.246;6.850;2023-02-27T01:56:21;1.27;;;1.17;;
6985;SDS011;3533;51.246;6.850;2023-02-27T01:58:48;1.40;;;1.30;;
6985;SDS011;3533;51.246;6.850;2023-02-27T02:01:16;1.13;;;1.03;;
6985;SDS011;3533;51.246;6.850;2023-02-27T02:03:45;1.43;;;1.33;;
6985;SDS011;3533;51.246;6.850;2023-02-27T02:06:34;1.27;;;1.17;;
6985;SDS011;3533;51.246;6.850;2023-02-27T02:09:01;1.50;;;1.40;;
6985;SDS011;3533;51.246;6.850;2023-02-27T02:11:29;1.40;;;1.30;;
6985;SDS011;3533;51.246;6.850;2023-02-27T02:13:56;1.40;;;1.30;;
6985;SDS011;3533;51.246;6.850;2023-02-27T02:27:32;1.30;;;1.20;;
6985;SDS011;3533;51.246;6.850;2023-02-27T02:36:09;1.20;;;1.10;;
6985;SDS011;3533;51.246;6.850;2023-02-27T02:41:53;1.27;;;1.17;;
6985;SDS011;3533;51.246;6.850;2023-02-27T02:47:32;1.43;;;1.33;;
6985;SDS011;3533;51.246;6.850;2023-02-27T02:50:25;1.30;;;1.20;;
6985;SDS011;3533;51.246;6.850;2023-02-27T02:53:17;1.27;;;1.17;;
6985;SDS011;3533;51.246;6.850;2023-02-27T03:04:24;1.97;;;1.27;;
6985;SDS011;3533;51.246;6.850;2023-02-27T03:06:58;1.30;;;1.20;;
6985;SDS011;3533;51.246;6.850;2023-02-27T03:09:35;1.20;;;1.10;;
6985;SDS011;3533;51.246;6.850;2023-02-27T03:12:08;1.40;;;1.30;;
6985;SDS011;3533;51.246;6.850;2023-02-27T03:14:39;1.33;;;1.23;;
6985;SDS011;3533;51.246;6.850;2023-02-27T03:17:14;1.10;;;1.00;;
6985;SDS011;3533;51.246;6.850;2023-02-27T03:19:51;1.30;;;1.20;;
6985;SDS011;3533;51.246;6.850;2023-02-27T03:22:32;1.00;;;0.90;;
6985;SDS011;3533;51.246;6.850;2023-02-27T03:25:01;1.10;;;1.00;;
6985;SDS011;3533;51.246;6.850;2023-02-27T03:27:32;1.13;;;1.03;;
6985;SDS011;3533;51.246;6.850;2023-02-27T03:32:37;1.30;;;1.20;;
6985;SDS011;3533;51.246;6.850;2023-02-27T03:35:21;1.20;;;1.10;;
6985;SDS011;3533;51.246;6.850;2023-02-27T03:37:57;1.80;;;1.03;;
6985;SDS011;3533;51.246;6.850;2023-02-27T03:40:48;1.30;;;1.20;;
6985;SDS011;3533;51.246;6.850;2023-02-27T03:46:21;1.40;;;1.30;;
6985;SDS011;3533;51.246;6.850;2023-02-27T03:48:50;1.63;;;1.53;;
6985;SDS011;3533;51.246;6.850;2023-02-27T03:51:17;1.17;;;1.07;;
6985;SDS011;3533;51.246;6.850;2023-02-27T03:56:46;1.20;;;1.10;;
6985;SDS011;3533;51.246;6.850;2023-02-27T03:59:17;1.20;;;1.10;;
6985;SDS011;3533;51.246;6.850;2023-02-27T04:01:43;1.70;;;1.10;;
6985;SDS011;3533;51.246;6.850;2023-02-27T04:04:10;1.10;;;1.00;;
6985;SDS011;3533;51.246;6.850;2023-02-27T04:06:38;1.30;;;1.20;;
6985;SDS011;3533;51.246;6.850;2023-02-27T04:14:58;1.20;;;1.10;;
6985;SDS011;3533;51.246;6.850;2023-02-27T04:17:48;1.30;;;1.20;;
6985;SDS011;3533;51.246;6.850;2023-02-27T04:20:26;1.30;;;1.20;;
6985;SDS011;3533;51.246;6.850;2023-02-27T04:25:53;1.07;;;1.00;;
6985;SDS011;3533;51.246;6.850;2023-02-27T04:28:51;1.37;;;1.27;;
6985;SDS011;3533;51.246;6.850;2023-02-27T04:31:34;1.20;;;1.10;;
6985;SDS011;3533;51.246;6.850;2023-02-27T04:36:40;1.17;;;1.07;;
6985;SDS011;3533;51.246;6.850;2023-02-27T04:39:31;1.30;;;1.20;;
6985;SDS011;3533;51.246;6.850;2023-02-27T04:42:09;1.10;;;1.00;;
6985;SDS011;3533;51.246;6.850;2023-02-27T04:44:39;1.30;;;1.20;;
6985;SDS011;3533;51.246;6.850;2023-02-27T04:47:07;1.10;;;1.00;;
6985;SDS011;3533;51.246;6.850;2023-02-27T04:49:35;1.20;;;1.10;;
6985;SDS011;3533;51.246;6.850;2023-02-27T04:52:11;1.30;;;1.20;;
6985;SDS011;3533;51.246;6.850;2023-02-27T04:54:45;1.27;;;1.17;;
6985;SDS011;3533;51.246;6.850;2023-02-27T05:00:34;1.40;;;1.30;;
6985;SDS011;3533;51.246;6.850;2023-02-27T05:03:10;1.17;;;1.07;;
6985;SDS011;3533;51.246;6.850;2023-02-27T05:05:40;1.10;;;1.00;;
6985;SDS011;3533;51.246;6.850;2023-02-27T05:08:10;1.60;;;1.07;;
6985;SDS011;3533;51.246;6.850;2023-02-27T05:10:47;1.17;;;1.07;;
6985;SDS011;3533;51.246;6.850;2023-02-27T05:13:19;1.20;;;1.10;;
6985;SDS011;3533;51.246;6.850;2023-02-27T05:15:51;1.07;;;0.97;;
6985;SDS011;3533;51.246;6.850;2023-02-27T05:18:20;0.83;;;0.83;;
6985;SDS011;3533;51.246;6.850;2023-02-27T05:23:52;1.17;;;1.00;;
6985;SDS011;3533;51.246;6.850;2023-02-27T05:29:30;1.23;;;1.13;;
6985;SDS011;3533;51.246;6.850;2023-02-27T05:32:03;1.20;;;1.10;;
6985;SDS011;3533;51.246;6.850;2023-02-27T05:34:41;1.20;;;1.10;;
6985;SDS011;3533;51.246;6.850;2023-02-27T05:37:13;2.33;;;1.30;;
6985;SDS011;3533;51.246;6.850;2023-02-27T05:39:44;1.30;;;1.20;;
6985;SDS011;3533;51.246;6.850;2023-02-27T05:42:14;1.30;;;1.00;;
6985;SDS011;3533;51.246;6.850;2023-02-27T05:44:48;1.40;;;1.10;;
6985;SDS011;3533;51.246;6.850;2023-02-27T05:47:19;0.90;;;0.90;;
6985;SDS011;3533;51.246;6.850;2023-02-27T05:49:58;1.30;;;1.20;;
6985;SDS011;3533;51.246;6.850;2023-02-27T05:52:37;1.20;;;1.10;;
6985;SDS011;3533;51.246;6.850;2023-02-27T05:55:21;1.33;;;1.23;;
6985;SDS011;3533;51.246;6.850;2023-02-27T05:57:53;2.97;;;1.23;;
6985;SDS011;3533;51.246;6.850;2023-02-27T06:00:31;1.07;;;1.00;;
6985;SDS011;3533;51.246;6.850;2023-02-27T06:03:21;1.13;;;1.03;;
6985;SDS011;3533;51.246;6.850;2023-02-27T06:05:47;1.00;;;1.00;;
6985;SDS011;3533;51.246;6.850;2023-02-27T06:08:16;1.13;;;1.03;;
6985;SDS011;3533;51.246;6.850;2023-02-27T06:10:42;1.10;;;1.00;;
6985;SDS011;3533;51.246;6.850;2023-02-27T06:13:08;1.43;;;1.10;;
6985;SDS011;3533;51.246;6.850;2023-02-27T06:15:34;1.10;;;1.00;;
6985;SDS011;3533;51.246;6.850;2023-02-27T06:17:59;1.07;;;1.00;;
6985;SDS011;3533;51.246;6.850;2023-02-27T06:20:25;1.17;;;1.07;;
6985;SDS011;3533;51.246;6.850;2023-02-27T06:22:50;1.13;;;1.03;;
6985;SDS011;3533;51.246;6.850;2023-02-27T06:25:16;1.30;;;1.20;;
6985;SDS011;3533;51.246;6.850;2023-02-27T06:27:42;1.10;;;1.00;;
6985;SDS011;3533;51.246;6.850;2023-02-27T06:30:07;1.10;;;1.00;;
6985;SDS011;3533;51.246;6.850;2023-02-27T06:32:33;2.23;;;1.70;;
6985;SDS011;3533;51.246;6.850;2023-02-27T06:34:59;1.13;;;1.03;;
6985;SDS011;3533;51.246;6.850;2023-02-27T06:37:24;1.17;;;1.07;;
6985;SDS011;3533;51.246;6.850;2023-02-27T06:39:50;1.13;;;1.03;;
6985;SDS011;3533;51.246;6.850;2023-02-27T06:42:16;2.40;;;1.10;;
6985;SDS011;3533;51.246;6.850;2023-02-27T06:44:42;1.10;;;1.00;;
6985;SDS011;3533;51.246;6.850;2023-02-27T06:47:08;1.00;;;0.90;;
6985;SDS011;3533;51.246;6.850;2023-02-27T06:49:33;1.20;;;1.10;;
6985;SDS011;3533;51.246;6.850;2023-02-27T06:51:59;1.10;;;1.00;;
6985;SDS011;3533;51.246;6.850;2023-02-27T06:54:24;1.87;;;1.20;;
6985;SDS011;3533;51.246;6.850;2023-02-27T06:56:50;1.50;;;1.20;;
6985;SDS011;3533;51.246;6.850;2023-02-27T06:59:15;1.67;;;1.20;;
6985;SDS011;3533;51.246;6.850;2023-02-27T07:01:41;1.20;;;1.10;;
6985;SDS011;3533;51.246;6.850;2023-02-27T07:04:07;1.30;;;1.20;;
6985;SDS011;3533;51.246;6.850;2023-02-27T07:06:36;1.30;;;1.20;;
6985;SDS011;3533;51.246;6.850;2023-02-27T07:09:02;1.90;;;1.40;;
6985;SDS011;3533;51.246;6.850;2023-02-27T07:11:28;1.40;;;1.30;;
6985;SDS011;3533;51.246;6.850;2023-02-27T07:13:54;1.20;;;1.10;;
6985;SDS011;3533;51.246;6.850;2023-02-27T07:16:20;1.33;;;1.10;;
6985;SDS011;3533;51.246;6.850;2023-02-27T07:18:46;1.20;;;1.10;;
6985;SDS011;3533;51.246;6.850;2023-02-27T07:21:11;1.40;;;1.30;;
6985;SDS011;3533;51.246;6.850;2023-02-27T07:23:39;1.20;;;1.10;;
6985;SDS011;3533;51.246;6.850;2023-02-27T07:26:04;1.30;;;1.20;;
6985;SDS011;3533;51.246;6.850;2023-02-27T07:28:30;1.37;;;1.27;;
6985;SDS011;3533;51.246;6.850;2023-02-27T07:30:55;1.20;;;1.10;;
6985;SDS011;3533;51.246;6.850;2023-02-27T07:33:21;1.20;;;1.10;;
6985;SDS011;3533;51.246;6.850;2023-02-27T07:35:47;2.13;;;1.13;;
6985;SDS011;3533;51.246;6.850;2023-02-27T07:38:14;1.10;;;1.00;;
6985;SDS011;3533;51.246;6.850;2023-02-27T07:40:39;1.50;;;1.27;;
6985;SDS011;3533;51.246;6.850;2023-02-27T07:43:06;1.33;;;1.20;;
6985;SDS011;3533;51.246;6.850;2023-02-27T07:45:31;1.83;;;1.40;;
6985;SDS011;3533;51.246;6.850;2023-02-27T07:47:57;1.63;;;1.40;;
6985;SDS011;3533;51.246;6.850;2023-02-27T07:50:23;1.20;;;1.10;;
6985;SDS011;3533;51.246;6.850;2023-02-27T07:52:48;1.40;;;1.30;;
6985;SDS011;3533;51.246;6.850;2023-02-27T07:55:16;1.20;;;1.10;;
6985;SDS011;3533;51.246;6.850;2023-02-27T07:57:41;1.20;;;1.10;;
6985;SDS011;3533;51.246;6.850;2023-02-27T08:00:09;1.13;;;1.03;;
6985;SDS011;3533;51.246;6.850;2023-02-27T08:02:35;1.20;;;1.10;;
6985;SDS011;3533;51.246;6.850;2023-02-27T08:05:00;1.40;;;1.30;;
6985;SDS011;3533;51.246;6.850;2023-02-27T08:07:26;1.43;;;1.10;;
6985;SDS011;3533;51.246;6.850;2023-02-27T08:09:51;1.10;;;1.00;;
6985;SDS011;3533;51.246;6.850;2023-02-27T08:12:17;1.20;;;1.10;;
6985;SDS011;3533;51.246;6.850;2023-02-27T08:14:43;1.17;;;1.07;;
6985;SDS011;3533;51.246;6.850;2023-02-27T08:17:09;1.20;;;1.10;;
6985;SDS011;3533;51.246;6.850;2023-02-27T08:19:34;1.30;;;1.20;;
6985;SDS011;3533;51.246;6.850;2023-02-27T08:22:00;1.67;;;1.27;;
6985;SDS011;3533;51.246;6.850;2023-02-27T08:24:26;1.10;;;1.00;;
6985;SDS011;3533;51.246;6.850;2023-02-27T08:26:52;1.20;;;1.10;;
6985;SDS011;3533;51.246;6.850;2023-02-27T08:29:17;1.57;;;1.00;;
6985;SDS011;3533;51.246;6.850;2023-02-27T08:31:43;1.73;;;1.10;;
6985;SDS011;3533;51.246;6.850;2023-02-27T08:34:09;1.13;;;1.03;;
6985;SDS011;3533;51.246;6.850;2023-02-27T08:36:34;1.03;;;0.93;;
6985;SDS011;3533;51.246;6.850;2023-02-27T08:39:00;1.17;;;1.07;;
6985;SDS011;3533;51.246;6.850;2023-02-27T08:41:26;1.20;;;1.10;;
6985;SDS011;3533;51.246;6.850;2023-02-27T08:43:51;1.20;;;1.10;;
6985;SDS011;3533;51.246;6.850;2023-02-27T08:46:17;1.40;;;1.20;;
6985;SDS011;3533;51.246;6.850;2023-02-27T08:48:42;1.47;;;1.10;;
6985;SDS011;3533;51.246;6.850;2023-02-27T08:51:08;1.20;;;1.10;;
6985;SDS011;3533;51.246;6.850;2023-02-27T08:53:34;1.30;;;1.10;;
6985;SDS011;3533;51.246;6.850;2023-02-27T08:55:59;2.37;;;1.17;;
6985;SDS011;3533;51.246;6.850;2023-02-27T08:58:25;1.17;;;1.07;;
6985;SDS011;3533;51.246;6.850;2023-02-27T09:00:52;1.20;;;1.10;;
6985;SDS011;3533;51.246;6.850;2023-02-27T09:03:18;0.90;;;0.90;;
6985;SDS011;3533;51.246;6.850;2023-02-27T09:05:43;1.20;;;1.10;;
6985;SDS011;3533;51.246;6.850;2023-02-27T09:08:09;1.20;;;1.10;;
6985;SDS011;3533;51.246;6.850;2023-02-27T09:10:34;2.90;;;1.10;;
6985;SDS011;3533;51.246;6.850;2023-02-27T09:13:00;1.47;;;1.37;;
6985;SDS011;3533;51.246;6.850;2023-02-27T09:15:26;1.20;;;1.10;;
6985;SDS011;3533;51.246;6.850;2023-02-27T09:17:51;1.10;;;1.00;;
6985;SDS011;3533;51.246;6.850;2023-02-27T09:20:20;1.13;;;1.03;;
6985;SDS011;3533;51.246;6.850;2023-02-27T09:22:46;1.40;;;1.30;;
6985;SDS011;3533;51.246;6.850;2023-02-27T09:25:11;1.00;;;0.90;;
6985;SDS011;3533;51.246;6.850;2023-02-27T09:27:37;1.10;;;1.00;;
6985;SDS011;3533;51.246;6.850;2023-02-27T09:30:02;1.13;;;1.03;;
6985;SDS011;3533;51.246;6.850;2023-02-27T09:32:28;1.00;;;0.90;;
6985;SDS011;3533;51.246;6.850;2023-02-27T09:34:54;1.20;;;1.10;;
6985;SDS011;3533;51.246;6.850;2023-02-27T09:37:19;1.30;;;1.20;;
6985;SDS011;3533;51.246;6.850;2023-02-27T09:39:45;1.83;;;1.43;;
6985;SDS011;3533;51.246;6.850;2023-02-27T09:42:17;1.23;;;1.10;;
6985;SDS011;3533;51.246;6.850;2023-02-27T09:44:49;1.60;;;0.93;;
6985;SDS011;3533;51.246;6.850;2023-02-27T09:47:29;1.20;;;1.10;;
6985;SDS011;3533;51.246;6.850;2023-02-27T09:52:32;1.03;;;0.90;;
6985;SDS011;3533;51.246;6.850;2023-02-27T09:55:01;1.07;;;1.00;;
6985;SDS011;3533;51.246;6.850;2023-02-27T09:57:31;1.20;;;1.10;;
6985;SDS011;3533;51.246;6.850;2023-02-27T10:00:14;2.20;;;1.10;;
6985;SDS011;3533;51.246;6.850;2023-02-27T10:06:17;0.90;;;0.90;;
6985;SDS011;3533;51.246;6.850;2023-02-27T10:17:23;1.77;;;1.00;;
6985;SDS011;3533;51.246;6.850;2023-02-27T10:20:07;0.90;;;0.90;;
6985;SDS011;3533;51.246;6.850;2023-02-27T10:22:42;1.20;;;1.10;;
6985;SDS011;3533;51.246;6.850;2023-02-27T10:25:11;1.07;;;1.00;;
6985;SDS011;3533;51.246;6.850;2023-02-27T10:27:44;1.13;;;1.03;;
6985;SDS011;3533;51.246;6.850;2023-02-27T10:32:44;1.10;;;1.00;;
6985;SDS011;3533;51.246;6.850;2023-02-27T10:35:21;1.07;;;0.97;;
6985;SDS011;3533;51.246;6.850;2023-02-27T10:37:54;1.10;;;1.00;;
6985;SDS011;3533;51.246;6.850;2023-02-27T10:40:24;0.90;;;0.90;;
6985;SDS011;3533;51.246;6.850;2023-02-27T10:42:51;0.90;;;0.90;;
6985;SDS011;3533;51.246;6.850;2023-02-27T10:45:18;1.00;;;0.90;;
6985;SDS011;3533;51.246;6.850;2023-02-27T10:47:44;1.20;;;1.10;;
6985;SDS011;3533;51.246;6.850;2023-02-27T10:50:20;1.20;;;1.10;;
6985;SDS011;3533;51.246;6.850;2023-02-27T10:52:49;1.10;;;0.93;;
6985;SDS011;3533;51.246;6.850;2023-02-27T10:55:17;1.03;;;0.93;;
6985;SDS011;3533;51.246;6.850;2023-02-27T10:57:47;0.80;;;0.80;;
6985;SDS011;3533;51.246;6.850;2023-02-27T11:00:59;1.20;;;1.10;;
6985;SDS011;3533;51.246;6.850;2023-02-27T11:02:59;0.90;;;0.87;;
6985;SDS011;3533;51.246;6.850;2023-02-27T11:05:30;1.23;;;1.13;;
6985;SDS011;3533;51.246;6.850;2023-02-27T11:08:11;1.13;;;1.03;;
6985;SDS011;3533;51.246;6.850;2023-02-27T11:10:56;1.07;;;0.97;;
6985;SDS011;3533;51.246;6.850;2023-02-27T11:13:28;1.13;;;1.03;;
6985;SDS011;3533;51.246;6.850;2023-02-27T11:16:06;1.00;;;0.90;;
6985;SDS011;3533;51.246;6.850;2023-02-27T11:18:34;1.47;;;0.97;;
6985;SDS011;3533;51.246;6.850;2023-02-27T11:23:35;1.00;;;0.90;;
6985;SDS011;3533;51.246;6.850;2023-02-27T11:26:12;1.17;;;0.93;;
6985;SDS011;3533;51.246;6.850;2023-02-27T11:28:41;1.10;;;0.90;;
6985;SDS011;3533;51.246;6.850;2023-02-27T11:31:19;1.10;;;1.00;;
6985;SDS011;3533;51.246;6.850;2023-02-27T11:33:50;0.80;;;0.80;;
6985;SDS011;3533;51.246;6.850;2023-02-27T11:36:20;0.93;;;0.83;;
6985;SDS011;3533;51.246;6.850;2023-02-27T11:38:50;0.70;;;0.70;;
6985;SDS011;3533;51.246;6.850;2023-02-27T11:41:18;1.13;;;1.00;;
6985;SDS011;3533;51.246;6.850;2023-02-27T11:43:46;1.20;;;0.97;;
6985;SDS011;3533;51.246;6.850;2023-02-27T11:46:18;1.00;;;0.90;;
6985;SDS011;3533;51.246;6.850;2023-02-27T11:48:46;0.90;;;0.90;;
6985;SDS011;3533;51.246;6.850;2023-02-27T12:04:56;0.93;;;0.90;;
6985;SDS011;3533;51.246;6.850;2023-02-27T12:07:50;0.90;;;0.77;;
6985;SDS011;3533;51.246;6.850;2023-02-27T12:10:25;1.00;;;0.80;;
6985;SDS011;3533;51.246;6.850;2023-02-27T12:13:22;0.97;;;0.87;;
6985;SDS011;3533;51.246;6.850;2023-02-27T12:15:59;1.00;;;0.90;;
6985;SDS011;3533;51.246;6.850;2023-02-27T12:18:49;0.77;;;0.77;;
6985;SDS011;3533;51.246;6.850;2023-02-27T12:22:01;0.93;;;0.83;;
6985;SDS011;3533;51.246;6.850;2023-02-27T12:26:38;0.90;;;0.80;;
6985;SDS011;3533;51.246;6.850;2023-02-27T12:34:48;2.03;;;1.00;;
6985;SDS011;3533;51.246;6.850;2023-02-27T12:37:23;0.80;;;0.73;;
6985;SDS011;3533;51.246;6.850;2023-02-27T12:39:53;1.00;;;0.90;;
6985;SDS011;3533;51.246;6.850;2023-02-27T12:42:31;1.00;;;0.90;;
6985;SDS011;3533;51.246;6.850;2023-02-27T12:45:21;1.10;;;1.00;;
6985;SDS011;3533;51.246;6.850;2023-02-27T12:56:18;0.80;;;0.80;;
6985;SDS011;3533;51.246;6.850;2023-02-27T12:59:10;0.80;;;0.80;;
6985;SDS011;3533;51.246;6.850;2023-02-27T13:02:00;0.73;;;0.67;;
6985;SDS011;3533;51.246;6.850;2023-02-27T13:07:25;0.90;;;0.80;;
6985;SDS011;3533;51.246;6.850;2023-02-27T13:09:56;0.93;;;0.70;;
6985;SDS011;3533;51.246;6.850;2023-02-27T13:15:05;0.83;;;0.80;;
6985;SDS011;3533;51.246;6.850;2023-02-27T13:17:47;0.70;;;0.70;;
6985;SDS011;3533;51.246;6.850;2023-02-27T13:23:05;0.73;;;0.73;;
6985;SDS011;3533;51.246;6.850;2023-02-27T13:25:38;0.80;;;0.80;;
6985;SDS011;3533;51.246;6.850;2023-02-27T13:28:11;0.70;;;0.70;;
6985;SDS011;3533;51.246;6.850;2023-02-27T13:30:42;0.90;;;0.70;;
6985;SDS011;3533;51.246;6.850;2023-02-27T13:38:40;1.40;;;0.67;;
6985;SDS011;3533;51.246;6.850;2023-02-27T13:43:45;0.73;;;0.70;;
6985;SDS011;3533;51.246;6.850;2023-02-27T13:46:22;0.70;;;0.70;;
6985;SDS011;3533;51.246;6.850;2023-02-27T13:48:53;0.70;;;0.70;;
6985;SDS011;3533;51.246;6.850;2023-02-27T13:56:48;0.83;;;0.80;;
6985;SDS011;3533;51.246;6.850;2023-02-27T13:59:39;0.70;;;0.70;;
6985;SDS011;3533;51.246;6.850;2023-02-27T14:04:56;0.90;;;0.80;;
6985;SDS011;3533;51.246;6.850;2023-02-27T14:07:23;1.00;;;0.90;;
6985;SDS011;3533;51.246;6.850;2023-02-27T14:09:52;0.80;;;0.80;;
6985;SDS011;3533;51.246;6.850;2023-02-27T14:12:27;1.20;;;0.90;;
6985;SDS011;3533;51.246;6.850;2023-02-27T14:14:55;0.80;;;0.80;;
6985;SDS011;3533;51.246;6.850;2023-02-27T14:20:03;0.80;;;0.80;;
6985;SDS011;3533;51.246;6.850;2023-02-27T14:25:45;0.70;;;0.70;;
6985;SDS011;3533;51.246;6.850;2023-02-27T14:28:31;0.80;;;0.80;;
6985;SDS011;3533;51.246;6.850;2023-02-27T14:31:22;0.70;;;0.70;;
6985;SDS011;3533;51.246;6.850;2023-02-27T14:33:56;1.10;;;0.80;;
6985;SDS011;3533;51.246;6.850;2023-02-27T14:36:29;0.67;;;0.63;;
6985;SDS011;3533;51.246;6.850;2023-02-27T14:38:58;0.80;;;0.70;;
6985;SDS011;3533;51.246;6.850;2023-02-27T14:41:37;0.70;;;0.70;;
6985;SDS011;3533;51.246;6.850;2023-02-27T14:44:20;0.83;;;0.83;;
6985;SDS011;3533;51.246;6.850;2023-02-27T14:46:48;0.73;;;0.73;;
6985;SDS011;3533;51.246;6.850;2023-02-27T14:51:42;0.70;;;0.70;;
6985;SDS011;3533;51.246;6.850;2023-02-27T14:54:16;0.80;;;0.80;;
6985;SDS011;3533;51.246;6.850;2023-02-27T14:57:00;1.00;;;0.90;;
6985;SDS011;3533;51.246;6.850;2023-02-27T14:59:31;1.00;;;0.90;;
6985;SDS011;3533;51.246;6.850;2023-02-27T15:02:09;0.60;;;0.60;;
6985;SDS011;3533;51.246;6.850;2023-02-27T15:04:55;0.90;;;0.80;;
6985;SDS011;3533;51.246;6.850;2023-02-27T15:07:39;0.80;;;0.80;;
6985;SDS011;3533;51.246;6.850;2023-02-27T15:10:08;0.80;;;0.80;;
6985;SDS011;3533;51.246;6.850;2023-02-27T15:12:40;1.23;;;1.13;;
6985;SDS011;3533;51.246;6.850;2023-02-27T15:15:06;1.07;;;0.80;;
6985;SDS011;3533;51.246;6.850;2023-02-27T15:17:40;1.00;;;0.90;;
6985;SDS011;3533;51.246;6.850;2023-02-27T15:22:59;0.70;;;0.60;;
6985;SDS011;3533;51.246;6.850;2023-02-27T15:25:30;0.80;;;0.80;;
6985;SDS011;3533;51.246;6.850;2023-02-27T15:28:14;0.80;;;0.80;;
6985;SDS011;3533;51.246;6.850;2023-02-27T15:30:49;0.80;;;0.70;;
6985;SDS011;3533;51.246;6.850;2023-02-27T15:33:16;0.80;;;0.80;;
6985;SDS011;3533;51.246;6.850;2023-02-27T15:35:43;0.80;;;0.70;;
6985;SDS011;3533;51.246;6.850;2023-02-27T15:40:58;0.80;;;0.80;;
6985;SDS011;3533;51.246;6.850;2023-02-27T15:43:25;0.80;;;0.80;;
6985;SDS011;3533;51.246;6.850;2023-02-27T15:45:53;0.90;;;0.87;;
6985;SDS011;3533;51.246;6.850;2023-02-27T15:48:19;1.00;;;0.80;;
6985;SDS011;3533;51.246;6.850;2023-02-27T15:50:47;1.00;;;0.90;;
6985;SDS011;3533;51.246;6.850;2023-02-27T15:53:17;0.90;;;0.90;;
6985;SDS011;3533;51.246;6.850;2023-02-27T15:55:57;0.80;;;0.80;;
6985;SDS011;3533;51.246;6.850;2023-02-27T15:58:35;1.30;;;0.90;;
6985;SDS011;3533;51.246;6.850;2023-02-27T16:01:12;0.70;;;0.70;;
6985;SDS011;3533;51.246;6.850;2023-02-27T16:03:51;0.80;;;0.80;;
6985;SDS011;3533;51.246;6.850;2023-02-27T16:06:20;0.80;;;0.70;;
6985;SDS011;3533;51.246;6.850;2023-02-27T16:08:51;0.80;;;0.80;;
6985;SDS011;3533;51.246;6.850;2023-02-27T16:11:23;0.90;;;0.90;;
6985;SDS011;3533;51.246;6.850;2023-02-27T16:13:51;1.03;;;0.87;;
6985;SDS011;3533;51.246;6.850;2023-02-27T16:16:23;1.27;;;1.00;;
6985;SDS011;3533;51.246;6.850;2023-02-27T16:18:56;0.87;;;0.87;;
6985;SDS011;3533;51.246;6.850;2023-02-27T16:21:24;1.30;;;1.20;;
6985;SDS011;3533;51.246;6.850;2023-02-27T16:23:51;0.80;;;0.80;;
6985;SDS011;3533;51.246;6.850;2023-02-27T16:34:00;0.90;;;0.90;;
6985;SDS011;3533;51.246;6.850;2023-02-27T16:36:37;1.10;;;1.00;;
6985;SDS011;3533;51.246;6.850;2023-02-27T16:39:04;1.03;;;0.87;;
6985;SDS011;3533;51.246;6.850;2023-02-27T16:41:32;0.80;;;0.80;;
6985;SDS011;3533;51.246;6.850;2023-02-27T16:43:58;1.00;;;0.90;;
6985;SDS011;3533;51.246;6.850;2023-02-27T16:46:24;1.30;;;1.20;;
6985;SDS011;3533;51.246;6.850;2023-02-27T16:48:53;1.10;;;1.00;;
6985;SDS011;3533;51.246;6.850;2023-02-27T16:51:21;0.93;;;0.93;;
6985;SDS011;3533;51.246;6.850;2023-02-27T16:53:49;0.90;;;0.90;;
6985;SDS011;3533;51.246;6.850;2023-02-27T16:56:15;0.83;;;0.80;;
6985;SDS011;3533;51.246;6.850;2023-02-27T16:58:42;0.93;;;0.90;;
6985;SDS011;3533;51.246;6.850;2023-02-27T17:01:08;1.00;;;0.90;;
6985;SDS011;3533;51.246;6.850;2023-02-27T17:03:34;1.00;;;0.90;;
6985;SDS011;3533;51.246;6.850;2023-02-27T17:06:00;0.90;;;0.90;;
6985;SDS011;3533;51.246;6.850;2023-02-27T17:08:27;0.90;;;0.90;;
6985;SDS011;3533;51.246;6.850;2023-02-27T17:10:53;2.90;;;0.90;;
6985;SDS011;3533;51.246;6.850;2023-02-27T17:13:19;0.90;;;0.90;;
6985;SDS011;3533;51.246;6.850;2023-02-27T17:15:44;1.10;;;1.00;;
6985;SDS011;3533;51.246;6.850;2023-02-27T17:18:10;1.10;;;1.00;;
6985;SDS011;3533;51.246;6.850;2023-02-27T17:20:36;1.13;;;1.03;;
6985;SDS011;3533;51.246;6.850;2023-02-27T17:23:01;1.10;;;0.90;;
6985;SDS011;3533;51.246;6.850;2023-02-27T17:25:27;1.17;;;1.07;;
6985;SDS011;3533;51.246;6.850;2023-02-27T17:27:53;0.97;;;0.97;;
6985;SDS011;3533;51.246;6.850;2023-02-27T17:30:19;1.30;;;1.20;;
6985;SDS011;3533;51.246;6.850;2023-02-27T17:32:45;1.20;;;1.10;;
6985;SDS011;3533;51.246;6.850;2023-02-27T17:35:10;1.60;;;1.50;;
6985;SDS011;3533;51.246;6.850;2023-02-27T17:37:36;1.30;;;1.20;;
6985;SDS011;3533;51.246;6.850;2023-02-27T17:40:03;1.20;;;1.10;;
6985;SDS011;3533;51.246;6.850;2023-02-27T17:42:30;1.70;;;1.60;;
6985;SDS011;3533;51.246;6.850;2023-02-27T17:44:56;1.23;;;1.13;;
6985;SDS011;3533;51.246;6.850;2023-02-27T17:47:21;2.53;;;1.60;;
6985;SDS011;3533;51.246;6.850;2023-02-27T17:49:47;1.20;;;1.10;;
6985;SDS011;3533;51.246;6.850;2023-02-27T17:52:13;1.40;;;1.30;;
6985;SDS011;3533;51.246;6.850;2023-02-27T17:54:39;1.50;;;1.40;;
6985;SDS011;3533;51.246;6.850;2023-02-27T17:57:04;2.37;;;1.20;;
6985;SDS011;3533;51.246;6.850;2023-02-27T17:59:30;1.00;;;0.90;;
6985;SDS011;3533;51.246;6.850;2023-02-27T18:01:57;1.30;;;1.20;;
6985;SDS011;3533;51.246;6.850;2023-02-27T18:04:22;1.20;;;1.10;;
6985;SDS011;3533;51.246;6.850;2023-02-27T18:06:48;1.40;;;1.30;;
6985;SDS011;3533;51.246;6.850;2023-02-27T18:09:14;1.33;;;1.23;;
6985;SDS011;3533;51.246;6.850;2023-02-27T18:11:40;1.40;;;1.30;;